KPVD

Theodore Francis Green State Airport

Providence, Rhode Island, USA
METAR KPVD 162151Z 03014KT 3SM RA BR BKN035 BKN050 OVC070 04/03 A2988 RMK AO2 SLP118 P0013 T00440033 $
Observed Flight Rules
Dec-16 @ 21:51 UTC (47 minutes ago) Marginal Visual Flight Rules
Wind Visibility Clouds Conditions
30° at 14 knots 3 miles
  • Broken at 3,500' AGL
  • Broken at 5,000' AGL
  • Overcast at 7,000' AGL
  • Rain
  • Mist
Temperatures Readings Precipitation
Current 4°C / 39°F
Dewpoint 3°C / 37°F
Humidity 93%
Altimeter 29.88" Hg
Pressure 1011.8 hPa
Elevation 16
Current Rain 0.13
METAR KPVD 162151Z 03014KT 3SM RA BR BKN035 BKN050 OVC070 04/03 A2988 RMK AO2 SLP118 P0013 T00440033 $
Observed Flight Rules
Dec-16 @ 21:51 UTC
(47 minutes ago)
MVFR
Wind Visibility
30° at 14 knots 3 miles
Clouds
  • Broken at 3,500' AGL
  • Broken at 5,000' AGL
  • Overcast at 7,000' AGL
Conditions
  • Rain
  • Mist
Temperature Dewpoint
4°C / 39°F 3°C / 37°F
Humidity Altimeter Pressure
93% 29.88" Hg 1011.8 hPa
Current Rain
0.13